sensor_id;sensor_type;location;lat;lon;timestamp;P1;durP1;ratioP1;P2;durP2;ratioP2
7703;SDS011;3894;49.700;10.770;2024-01-07T00:01:40;13.98;;;5.22;;
7703;SDS011;3894;49.700;10.770;2024-01-07T00:04:12;11.65;;;4.65;;
7703;SDS011;3894;49.700;10.770;2024-01-07T00:06:37;13.40;;;4.38;;
7703;SDS011;3894;49.700;10.770;2024-01-07T00:09:03;9.63;;;4.15;;
7703;SDS011;3894;49.700;10.770;2024-01-07T00:11:28;14.02;;;5.63;;
7703;SDS011;3894;49.700;10.770;2024-01-07T00:13:54;13.55;;;5.13;;
7703;SDS011;3894;49.700;10.770;2024-01-07T00:16:19;13.65;;;5.43;;
7703;SDS011;3894;49.700;10.770;2024-01-07T00:18:45;15.05;;;5.28;;
7703;SDS011;3894;49.700;10.770;2024-01-07T00:21:10;13.52;;;5.28;;
7703;SDS011;3894;49.700;10.770;2024-01-07T00:23:36;12.98;;;5.35;;
7703;SDS011;3894;49.700;10.770;2024-01-07T00:26:02;15.43;;;6.28;;
7703;SDS011;3894;49.700;10.770;2024-01-07T00:28:28;13.90;;;5.72;;
7703;SDS011;3894;49.700;10.770;2024-01-07T00:30:54;13.68;;;5.10;;
7703;SDS011;3894;49.700;10.770;2024-01-07T00:33:19;12.73;;;5.30;;
7703;SDS011;3894;49.700;10.770;2024-01-07T00:35:45;13.77;;;5.18;;
7703;SDS011;3894;49.700;10.770;2024-01-07T00:38:11;13.25;;;5.53;;
7703;SDS011;3894;49.700;10.770;2024-01-07T00:40:36;13.70;;;5.32;;
7703;SDS011;3894;49.700;10.770;2024-01-07T00:43:03;15.30;;;6.35;;
7703;SDS011;3894;49.700;10.770;2024-01-07T00:45:28;13.90;;;5.18;;
7703;SDS011;3894;49.700;10.770;2024-01-07T00:47:54;14.10;;;5.13;;
7703;SDS011;3894;49.700;10.770;2024-01-07T00:50:20;14.60;;;5.78;;
7703;SDS011;3894;49.700;10.770;2024-01-07T00:52:45;18.25;;;5.78;;
7703;SDS011;3894;49.700;10.770;2024-01-07T00:55:11;13.05;;;4.93;;
7703;SDS011;3894;49.700;10.770;2024-01-07T00:57:37;14.15;;;5.10;;
7703;SDS011;3894;49.700;10.770;2024-01-07T01:00:06;14.10;;;4.88;;
7703;SDS011;3894;49.700;10.770;2024-01-07T01:02:32;13.82;;;5.53;;
7703;SDS011;3894;49.700;10.770;2024-01-07T01:04:57;16.15;;;5.70;;
7703;SDS011;3894;49.700;10.770;2024-01-07T01:07:23;12.98;;;4.93;;
7703;SDS011;3894;49.700;10.770;2024-01-07T01:09:48;14.32;;;5.72;;
7703;SDS011;3894;49.700;10.770;2024-01-07T01:12:14;11.38;;;4.97;;
7703;SDS011;3894;49.700;10.770;2024-01-07T01:14:40;15.65;;;5.28;;
7703;SDS011;3894;49.700;10.770;2024-01-07T01:17:06;15.07;;;6.15;;
7703;SDS011;3894;49.700;10.770;2024-01-07T01:19:31;15.50;;;5.70;;
7703;SDS011;3894;49.700;10.770;2024-01-07T01:21:57;15.35;;;6.25;;
7703;SDS011;3894;49.700;10.770;2024-01-07T01:24:23;13.38;;;5.53;;
7703;SDS011;3894;49.700;10.770;2024-01-07T01:26:48;14.20;;;5.80;;
7703;SDS011;3894;49.700;10.770;2024-01-07T01:29:14;16.02;;;5.25;;
7703;SDS011;3894;49.700;10.770;2024-01-07T01:31:39;16.58;;;5.97;;
7703;SDS011;3894;49.700;10.770;2024-01-07T01:34:05;15.48;;;5.57;;
7703;SDS011;3894;49.700;10.770;2024-01-07T01:36:31;15.18;;;5.93;;
7703;SDS011;3894;49.700;10.770;2024-01-07T01:38:56;13.13;;;5.32;;
7703;SDS011;3894;49.700;10.770;2024-01-07T01:41:22;15.07;;;5.72;;
7703;SDS011;3894;49.700;10.770;2024-01-07T01:43:48;13.68;;;5.05;;
7703;SDS011;3894;49.700;10.770;2024-01-07T01:46:13;13.93;;;5.45;;
7703;SDS011;3894;49.700;10.770;2024-01-07T01:48:39;15.82;;;6.10;;
7703;SDS011;3894;49.700;10.770;2024-01-07T01:51:06;15.43;;;5.75;;
7703;SDS011;3894;49.700;10.770;2024-01-07T01:53:32;15.35;;;5.32;;
7703;SDS011;3894;49.700;10.770;2024-01-07T01:55:58;13.10;;;5.30;;
7703;SDS011;3894;49.700;10.770;2024-01-07T01:58:27;11.80;;;4.57;;
7703;SDS011;3894;49.700;10.770;2024-01-07T02:00:54;12.05;;;4.07;;
7703;SDS011;3894;49.700;10.770;2024-01-07T02:03:20;11.25;;;4.55;;
7703;SDS011;3894;49.700;10.770;2024-01-07T02:05:45;11.13;;;4.05;;
7703;SDS011;3894;49.700;10.770;2024-01-07T02:08:14;10.90;;;3.80;;
7703;SDS011;3894;49.700;10.770;2024-01-07T02:10:40;10.43;;;3.58;;
7703;SDS011;3894;49.700;10.770;2024-01-07T02:13:05;10.38;;;3.97;;
7703;SDS011;3894;49.700;10.770;2024-01-07T02:15:31;12.50;;;4.05;;
7703;SDS011;3894;49.700;10.770;2024-01-07T02:17:58;13.18;;;3.83;;
7703;SDS011;3894;49.700;10.770;2024-01-07T02:20:24;10.30;;;3.92;;
7703;SDS011;3894;49.700;10.770;2024-01-07T02:22:49;9.63;;;3.72;;
7703;SDS011;3894;49.700;10.770;2024-01-07T02:25:15;10.23;;;3.85;;
7703;SDS011;3894;49.700;10.770;2024-01-07T02:27:40;10.20;;;3.75;;
7703;SDS011;3894;49.700;10.770;2024-01-07T02:30:06;9.27;;;2.95;;
7703;SDS011;3894;49.700;10.770;2024-01-07T02:32:32;10.35;;;2.97;;
7703;SDS011;3894;49.700;10.770;2024-01-07T02:34:59;9.00;;;3.33;;
7703;SDS011;3894;49.700;10.770;2024-01-07T02:37:25;9.25;;;3.42;;
7703;SDS011;3894;49.700;10.770;2024-01-07T02:39:51;7.80;;;2.83;;
7703;SDS011;3894;49.700;10.770;2024-01-07T02:42:16;9.93;;;2.40;;
7703;SDS011;3894;49.700;10.770;2024-01-07T02:44:42;10.68;;;2.55;;
7703;SDS011;3894;49.700;10.770;2024-01-07T02:47:07;7.32;;;2.78;;
7703;SDS011;3894;49.700;10.770;2024-01-07T02:49:33;5.82;;;2.50;;
7703;SDS011;3894;49.700;10.770;2024-01-07T02:51:59;6.63;;;2.13;;
7703;SDS011;3894;49.700;10.770;2024-01-07T02:54:24;8.55;;;2.30;;
7703;SDS011;3894;49.700;10.770;2024-01-07T02:56:50;8.27;;;2.70;;
7703;SDS011;3894;49.700;10.770;2024-01-07T02:59:15;8.60;;;2.53;;
7703;SDS011;3894;49.700;10.770;2024-01-07T03:01:41;7.80;;;2.63;;
7703;SDS011;3894;49.700;10.770;2024-01-07T03:04:07;10.77;;;2.42;;
7703;SDS011;3894;49.700;10.770;2024-01-07T03:06:35;8.93;;;2.83;;
7703;SDS011;3894;49.700;10.770;2024-01-07T03:09:00;7.18;;;2.33;;
7703;SDS011;3894;49.700;10.770;2024-01-07T03:11:26;9.40;;;3.10;;
7703;SDS011;3894;49.700;10.770;2024-01-07T03:13:51;10.63;;;2.92;;
7703;SDS011;3894;49.700;10.770;2024-01-07T03:16:23;7.90;;;2.50;;
7703;SDS011;3894;49.700;10.770;2024-01-07T03:18:50;8.48;;;2.72;;
7703;SDS011;3894;49.700;10.770;2024-01-07T03:21:19;7.72;;;2.30;;
7703;SDS011;3894;49.700;10.770;2024-01-07T03:23:46;7.38;;;2.65;;
7703;SDS011;3894;49.700;10.770;2024-01-07T03:26:12;8.65;;;3.00;;
7703;SDS011;3894;49.700;10.770;2024-01-07T03:28:38;9.07;;;3.30;;
7703;SDS011;3894;49.700;10.770;2024-01-07T03:31:14;9.80;;;2.78;;
7703;SDS011;3894;49.700;10.770;2024-01-07T03:33:41;9.00;;;2.63;;
7703;SDS011;3894;49.700;10.770;2024-01-07T03:36:07;9.73;;;3.35;;
7703;SDS011;3894;49.700;10.770;2024-01-07T03:38:34;10.23;;;3.00;;
7703;SDS011;3894;49.700;10.770;2024-01-07T03:41:00;9.30;;;3.17;;
7703;SDS011;3894;49.700;10.770;2024-01-07T03:43:25;8.75;;;2.35;;
7703;SDS011;3894;49.700;10.770;2024-01-07T03:45:51;9.77;;;2.92;;
7703;SDS011;3894;49.700;10.770;2024-01-07T03:48:16;9.25;;;3.22;;
7703;SDS011;3894;49.700;10.770;2024-01-07T03:50:42;8.45;;;2.83;;
7703;SDS011;3894;49.700;10.770;2024-01-07T03:53:08;7.35;;;2.53;;
7703;SDS011;3894;49.700;10.770;2024-01-07T03:55:34;6.32;;;2.28;;
7703;SDS011;3894;49.700;10.770;2024-01-07T03:57:59;7.35;;;2.33;;
7703;SDS011;3894;49.700;10.770;2024-01-07T04:00:25;8.05;;;2.08;;
7703;SDS011;3894;49.700;10.770;2024-01-07T04:02:50;9.75;;;2.70;;
7703;SDS011;3894;49.700;10.770;2024-01-07T04:05:16;6.15;;;1.85;;
7703;SDS011;3894;49.700;10.770;2024-01-07T04:07:41;8.90;;;2.90;;
7703;SDS011;3894;49.700;10.770;2024-01-07T04:10:07;8.05;;;2.17;;
7703;SDS011;3894;49.700;10.770;2024-01-07T04:12:33;6.82;;;2.30;;
7703;SDS011;3894;49.700;10.770;2024-01-07T04:14:58;9.75;;;2.92;;
7703;SDS011;3894;49.700;10.770;2024-01-07T04:17:24;7.18;;;2.13;;
7703;SDS011;3894;49.700;10.770;2024-01-07T04:19:49;8.55;;;2.95;;
7703;SDS011;3894;49.700;10.770;2024-01-07T04:22:16;9.27;;;3.00;;
7703;SDS011;3894;49.700;10.770;2024-01-07T04:24:42;8.45;;;2.72;;
7703;SDS011;3894;49.700;10.770;2024-01-07T04:27:07;10.00;;;3.70;;
7703;SDS011;3894;49.700;10.770;2024-01-07T04:29:33;10.82;;;3.33;;
7703;SDS011;3894;49.700;10.770;2024-01-07T04:31:58;8.95;;;2.88;;
7703;SDS011;3894;49.700;10.770;2024-01-07T04:34:24;8.50;;;3.13;;
7703;SDS011;3894;49.700;10.770;2024-01-07T04:36:50;9.65;;;3.10;;
7703;SDS011;3894;49.700;10.770;2024-01-07T04:39:16;9.02;;;3.15;;
7703;SDS011;3894;49.700;10.770;2024-01-07T04:41:41;8.95;;;3.20;;
7703;SDS011;3894;49.700;10.770;2024-01-07T04:44:07;8.02;;;2.60;;
7703;SDS011;3894;49.700;10.770;2024-01-07T04:46:37;9.02;;;3.30;;
7703;SDS011;3894;49.700;10.770;2024-01-07T04:49:03;8.20;;;3.08;;
7703;SDS011;3894;49.700;10.770;2024-01-07T04:51:31;7.20;;;2.50;;
7703;SDS011;3894;49.700;10.770;2024-01-07T04:53:57;8.43;;;2.50;;
7703;SDS011;3894;49.700;10.770;2024-01-07T04:56:23;8.88;;;2.67;;
7703;SDS011;3894;49.700;10.770;2024-01-07T04:58:48;10.07;;;3.05;;
7703;SDS011;3894;49.700;10.770;2024-01-07T05:01:14;11.00;;;3.63;;
7703;SDS011;3894;49.700;10.770;2024-01-07T05:03:40;10.43;;;3.15;;
7703;SDS011;3894;49.700;10.770;2024-01-07T05:06:07;11.85;;;4.15;;
7703;SDS011;3894;49.700;10.770;2024-01-07T05:08:34;10.30;;;3.40;;
7703;SDS011;3894;49.700;10.770;2024-01-07T05:10:59;9.05;;;2.53;;
7703;SDS011;3894;49.700;10.770;2024-01-07T05:13:25;7.40;;;2.85;;
7703;SDS011;3894;49.700;10.770;2024-01-07T05:15:50;7.82;;;1.98;;
7703;SDS011;3894;49.700;10.770;2024-01-07T05:18:21;8.20;;;2.22;;
7703;SDS011;3894;49.700;10.770;2024-01-07T05:20:50;6.95;;;2.50;;
7703;SDS011;3894;49.700;10.770;2024-01-07T05:23:16;8.35;;;2.50;;
7703;SDS011;3894;49.700;10.770;2024-01-07T05:25:42;6.95;;;2.00;;
7703;SDS011;3894;49.700;10.770;2024-01-07T05:28:09;8.15;;;2.40;;
7703;SDS011;3894;49.700;10.770;2024-01-07T05:30:35;8.82;;;2.55;;
7703;SDS011;3894;49.700;10.770;2024-01-07T05:33:00;8.23;;;2.28;;
7703;SDS011;3894;49.700;10.770;2024-01-07T05:35:26;9.20;;;2.60;;
7703;SDS011;3894;49.700;10.770;2024-01-07T05:37:51;9.25;;;2.45;;
7703;SDS011;3894;49.700;10.770;2024-01-07T05:40:17;7.30;;;2.55;;
7703;SDS011;3894;49.700;10.770;2024-01-07T05:42:42;7.93;;;2.53;;
7703;SDS011;3894;49.700;10.770;2024-01-07T05:45:08;8.20;;;2.25;;
7703;SDS011;3894;49.700;10.770;2024-01-07T05:47:33;8.00;;;2.40;;
7703;SDS011;3894;49.700;10.770;2024-01-07T05:49:59;7.13;;;2.17;;
7703;SDS011;3894;49.700;10.770;2024-01-07T05:52:25;8.50;;;2.85;;
7703;SDS011;3894;49.700;10.770;2024-01-07T05:54:50;9.23;;;3.30;;
7703;SDS011;3894;49.700;10.770;2024-01-07T05:57:16;10.70;;;3.47;;
7703;SDS011;3894;49.700;10.770;2024-01-07T05:59:43;7.78;;;2.42;;
7703;SDS011;3894;49.700;10.770;2024-01-07T06:02:09;8.80;;;2.83;;
7703;SDS011;3894;49.700;10.770;2024-01-07T06:04:34;7.50;;;2.28;;
7703;SDS011;3894;49.700;10.770;2024-01-07T06:07:02;7.43;;;2.72;;
7703;SDS011;3894;49.700;10.770;2024-01-07T06:09:28;7.55;;;2.45;;
7703;SDS011;3894;49.700;10.770;2024-01-07T06:11:53;8.15;;;2.70;;
7703;SDS011;3894;49.700;10.770;2024-01-07T06:14:19;9.45;;;2.78;;
7703;SDS011;3894;49.700;10.770;2024-01-07T06:16:44;7.88;;;2.20;;
7703;SDS011;3894;49.700;10.770;2024-01-07T06:19:10;8.15;;;2.75;;
7703;SDS011;3894;49.700;10.770;2024-01-07T06:21:35;8.50;;;2.33;;
7703;SDS011;3894;49.700;10.770;2024-01-07T06:24:01;8.80;;;3.78;;
7703;SDS011;3894;49.700;10.770;2024-01-07T06:26:26;10.75;;;3.28;;
7703;SDS011;3894;49.700;10.770;2024-01-07T06:28:52;8.45;;;3.00;;
7703;SDS011;3894;49.700;10.770;2024-01-07T06:31:17;8.95;;;3.42;;
7703;SDS011;3894;49.700;10.770;2024-01-07T06:33:43;11.85;;;3.42;;
7703;SDS011;3894;49.700;10.770;2024-01-07T06:36:08;9.80;;;3.10;;
7703;SDS011;3894;49.700;10.770;2024-01-07T06:38:34;9.90;;;3.15;;
7703;SDS011;3894;49.700;10.770;2024-01-07T06:41:00;9.60;;;3.15;;
7703;SDS011;3894;49.700;10.770;2024-01-07T06:43:28;10.57;;;2.97;;
7703;SDS011;3894;49.700;10.770;2024-01-07T06:45:54;9.52;;;2.70;;
7703;SDS011;3894;49.700;10.770;2024-01-07T06:48:20;10.95;;;3.35;;
7703;SDS011;3894;49.700;10.770;2024-01-07T06:50:45;9.82;;;3.35;;
7703;SDS011;3894;49.700;10.770;2024-01-07T06:53:11;10.88;;;3.50;;
7703;SDS011;3894;49.700;10.770;2024-01-07T06:55:37;9.77;;;3.25;;
7703;SDS011;3894;49.700;10.770;2024-01-07T06:58:02;10.20;;;3.25;;
7703;SDS011;3894;49.700;10.770;2024-01-07T07:00:28;9.27;;;3.03;;
7703;SDS011;3894;49.700;10.770;2024-01-07T07:02:53;9.23;;;3.40;;
7703;SDS011;3894;49.700;10.770;2024-01-07T07:05:19;12.43;;;4.05;;
7703;SDS011;3894;49.700;10.770;2024-01-07T07:07:44;9.27;;;3.17;;
7703;SDS011;3894;49.700;10.770;2024-01-07T07:10:10;12.00;;;3.40;;
7703;SDS011;3894;49.700;10.770;2024-01-07T07:12:36;9.80;;;3.47;;
7703;SDS011;3894;49.700;10.770;2024-01-07T07:15:02;13.15;;;4.85;;
7703;SDS011;3894;49.700;10.770;2024-01-07T07:17:27;14.32;;;4.43;;
7703;SDS011;3894;49.700;10.770;2024-01-07T07:19:53;10.60;;;3.53;;
7703;SDS011;3894;49.700;10.770;2024-01-07T07:22:18;12.15;;;3.00;;
7703;SDS011;3894;49.700;10.770;2024-01-07T07:24:44;13.07;;;4.03;;
7703;SDS011;3894;49.700;10.770;2024-01-07T07:27:09;18.13;;;5.82;;
7703;SDS011;3894;49.700;10.770;2024-01-07T07:29:35;16.05;;;4.40;;
7703;SDS011;3894;49.700;10.770;2024-01-07T07:32:01;13.02;;;4.22;;
7703;SDS011;3894;49.700;10.770;2024-01-07T07:34:26;12.63;;;4.10;;
7703;SDS011;3894;49.700;10.770;2024-01-07T07:36:52;10.40;;;4.00;;
7703;SDS011;3894;49.700;10.770;2024-01-07T07:39:17;11.80;;;4.78;;
7703;SDS011;3894;49.700;10.770;2024-01-07T07:41:43;12.00;;;3.85;;
7703;SDS011;3894;49.700;10.770;2024-01-07T07:44:09;12.25;;;4.03;;
7703;SDS011;3894;49.700;10.770;2024-01-07T07:46:34;11.02;;;3.90;;
7703;SDS011;3894;49.700;10.770;2024-01-07T07:49:00;10.68;;;4.00;;
7703;SDS011;3894;49.700;10.770;2024-01-07T07:51:26;11.38;;;3.90;;
7703;SDS011;3894;49.700;10.770;2024-01-07T07:53:53;11.48;;;4.32;;
7703;SDS011;3894;49.700;10.770;2024-01-07T07:56:18;11.73;;;4.38;;
7703;SDS011;3894;49.700;10.770;2024-01-07T07:58:44;12.65;;;4.47;;
7703;SDS011;3894;49.700;10.770;2024-01-07T08:01:09;11.48;;;4.30;;
7703;SDS011;3894;49.700;10.770;2024-01-07T08:03:35;11.07;;;4.03;;
7703;SDS011;3894;49.700;10.770;2024-01-07T08:06:01;10.27;;;3.60;;
7703;SDS011;3894;49.700;10.770;2024-01-07T08:08:27;10.52;;;3.47;;
7703;SDS011;3894;49.700;10.770;2024-01-07T08:10:52;12.48;;;4.22;;
7703;SDS011;3894;49.700;10.770;2024-01-07T08:13:19;10.38;;;4.00;;
7703;SDS011;3894;49.700;10.770;2024-01-07T08:15:44;10.52;;;3.92;;
7703;SDS011;3894;49.700;10.770;2024-01-07T08:18:10;10.20;;;4.13;;
7703;SDS011;3894;49.700;10.770;2024-01-07T08:20:35;11.00;;;3.67;;
7703;SDS011;3894;49.700;10.770;2024-01-07T08:23:01;10.93;;;3.33;;
7703;SDS011;3894;49.700;10.770;2024-01-07T08:25:27;10.90;;;3.88;;
7703;SDS011;3894;49.700;10.770;2024-01-07T08:27:52;10.27;;;3.50;;
7703;SDS011;3894;49.700;10.770;2024-01-07T08:30:18;11.70;;;4.65;;
7703;SDS011;3894;49.700;10.770;2024-01-07T08:32:43;9.73;;;3.42;;
7703;SDS011;3894;49.700;10.770;2024-01-07T08:35:09;12.52;;;3.60;;
7703;SDS011;3894;49.700;10.770;2024-01-07T08:37:35;12.52;;;4.43;;
7703;SDS011;3894;49.700;10.770;2024-01-07T08:40:00;11.93;;;4.70;;
7703;SDS011;3894;49.700;10.770;2024-01-07T08:42:26;10.55;;;3.88;;
7703;SDS011;3894;49.700;10.770;2024-01-07T08:44:54;13.13;;;4.25;;
7703;SDS011;3894;49.700;10.770;2024-01-07T08:47:20;8.38;;;3.17;;
7703;SDS011;3894;49.700;10.770;2024-01-07T08:49:45;12.45;;;4.93;;
7703;SDS011;3894;49.700;10.770;2024-01-07T08:52:11;10.60;;;4.63;;
7703;SDS011;3894;49.700;10.770;2024-01-07T08:54:36;15.55;;;4.32;;
7703;SDS011;3894;49.700;10.770;2024-01-07T08:57:02;13.65;;;4.63;;
7703;SDS011;3894;49.700;10.770;2024-01-07T08:59:27;10.70;;;4.15;;
7703;SDS011;3894;49.700;10.770;2024-01-07T09:01:54;11.52;;;4.55;;
7703;SDS011;3894;49.700;10.770;2024-01-07T09:04:20;12.48;;;4.55;;
7703;SDS011;3894;49.700;10.770;2024-01-07T09:06:45;14.82;;;5.00;;
7703;SDS011;3894;49.700;10.770;2024-01-07T09:09:11;13.63;;;5.13;;
7703;SDS011;3894;49.700;10.770;2024-01-07T09:11:36;13.73;;;5.20;;
7703;SDS011;3894;49.700;10.770;2024-01-07T09:14:02;14.70;;;5.28;;
7703;SDS011;3894;49.700;10.770;2024-01-07T09:16:28;15.95;;;5.65;;
7703;SDS011;3894;49.700;10.770;2024-01-07T09:18:54;10.57;;;4.78;;
7703;SDS011;3894;49.700;10.770;2024-01-07T09:21:20;14.00;;;5.82;;
7703;SDS011;3894;49.700;10.770;2024-01-07T09:23:48;15.73;;;5.60;;
7703;SDS011;3894;49.700;10.770;2024-01-07T09:26:13;14.35;;;5.88;;
7703;SDS011;3894;49.700;10.770;2024-01-07T09:28:39;15.60;;;5.15;;
7703;SDS011;3894;49.700;10.770;2024-01-07T09:31:05;12.70;;;5.32;;
7703;SDS011;3894;49.700;10.770;2024-01-07T09:33:31;12.18;;;4.88;;
7703;SDS011;3894;49.700;10.770;2024-01-07T09:35:57;13.40;;;4.93;;
7703;SDS011;3894;49.700;10.770;2024-01-07T09:38:22;15.25;;;5.85;;
7703;SDS011;3894;49.700;10.770;2024-01-07T09:40:50;14.75;;;5.90;;
7703;SDS011;3894;49.700;10.770;2024-01-07T09:43:16;12.10;;;5.20;;
7703;SDS011;3894;49.700;10.770;2024-01-07T09:45:42;14.85;;;5.57;;
7703;SDS011;3894;49.700;10.770;2024-01-07T09:48:10;11.93;;;5.43;;
7703;SDS011;3894;49.700;10.770;2024-01-07T09:50:36;13.35;;;5.88;;
7703;SDS011;3894;49.700;10.770;2024-01-07T09:53:02;14.27;;;5.65;;
7703;SDS011;3894;49.700;10.770;2024-01-07T09:55:33;14.20;;;5.20;;
7703;SDS011;3894;49.700;10.770;2024-01-07T09:58:05;13.90;;;4.80;;
7703;SDS011;3894;49.700;10.770;2024-01-07T10:00:31;15.13;;;6.28;;
7703;SDS011;3894;49.700;10.770;2024-01-07T10:02:57;13.57;;;4.47;;
7703;SDS011;3894;49.700;10.770;2024-01-07T10:05:23;13.55;;;6.53;;
7703;SDS011;3894;49.700;10.770;2024-01-07T10:07:49;11.75;;;5.60;;
7703;SDS011;3894;49.700;10.770;2024-01-07T10:10:15;14.30;;;6.15;;
7703;SDS011;3894;49.700;10.770;2024-01-07T10:12:43;15.13;;;6.22;;
7703;SDS011;3894;49.700;10.770;2024-01-07T10:17:35;14.98;;;5.55;;
7703;SDS011;3894;49.700;10.770;2024-01-07T10:20:01;12.35;;;5.40;;
7703;SDS011;3894;49.700;10.770;2024-01-07T10:22:29;14.70;;;6.43;;
7703;SDS011;3894;49.700;10.770;2024-01-07T10:24:55;15.15;;;5.30;;
7703;SDS011;3894;49.700;10.770;2024-01-07T10:27:22;13.18;;;4.80;;
7703;SDS011;3894;49.700;10.770;2024-01-07T10:29:48;17.92;;;6.63;;
7703;SDS011;3894;49.700;10.770;2024-01-07T10:32:20;12.32;;;4.88;;
7703;SDS011;3894;49.700;10.770;2024-01-07T10:34:46;13.98;;;5.53;;
7703;SDS011;3894;49.700;10.770;2024-01-07T10:37:14;13.73;;;5.45;;
7703;SDS011;3894;49.700;10.770;2024-01-07T10:39:40;12.05;;;4.93;;
7703;SDS011;3894;49.700;10.770;2024-01-07T10:42:05;15.38;;;4.95;;
7703;SDS011;3894;49.700;10.770;2024-01-07T10:44:32;12.90;;;4.45;;
7703;SDS011;3894;49.700;10.770;2024-01-07T10:46:58;12.90;;;5.15;;
7703;SDS011;3894;49.700;10.770;2024-01-07T10:49:25;12.93;;;5.15;;
7703;SDS011;3894;49.700;10.770;2024-01-07T10:52:05;15.82;;;5.38;;
7703;SDS011;3894;49.700;10.770;2024-01-07T10:57:04;11.57;;;4.28;;
7703;SDS011;3894;49.700;10.770;2024-01-07T10:59:45;11.70;;;3.67;;
7703;SDS011;3894;49.700;10.770;2024-01-07T11:02:12;12.77;;;4.20;;
7703;SDS011;3894;49.700;10.770;2024-01-07T11:04:59;11.70;;;4.28;;
7703;SDS011;3894;49.700;10.770;2024-01-07T11:12:34;10.82;;;4.32;;
7703;SDS011;3894;49.700;10.770;2024-01-07T11:14:59;13.07;;;3.95;;
7703;SDS011;3894;49.700;10.770;2024-01-07T11:19:58;12.85;;;4.38;;
7703;SDS011;3894;49.700;10.770;2024-01-07T11:22:25;13.30;;;5.28;;
7703;SDS011;3894;49.700;10.770;2024-01-07T11:24:55;12.52;;;5.00;;
7703;SDS011;3894;49.700;10.770;2024-01-07T11:27:25;13.30;;;4.70;;
7703;SDS011;3894;49.700;10.770;2024-01-07T11:30:37;12.40;;;4.60;;
7703;SDS011;3894;49.700;10.770;2024-01-07T11:32:45;8.35;;;3.78;;
7703;SDS011;3894;49.700;10.770;2024-01-07T11:35:14;13.05;;;4.22;;
7703;SDS011;3894;49.700;10.770;2024-01-07T11:37:40;12.05;;;4.20;;
7703;SDS011;3894;49.700;10.770;2024-01-07T11:40:06;12.43;;;4.65;;
7703;SDS011;3894;49.700;10.770;2024-01-07T11:42:33;10.70;;;4.60;;
7703;SDS011;3894;49.700;10.770;2024-01-07T11:44:58;12.35;;;5.03;;
7703;SDS011;3894;49.700;10.770;2024-01-07T11:47:24;13.10;;;4.60;;
7703;SDS011;3894;49.700;10.770;2024-01-07T11:49:53;10.73;;;3.88;;
7703;SDS011;3894;49.700;10.770;2024-01-07T11:52:19;11.45;;;4.15;;
7703;SDS011;3894;49.700;10.770;2024-01-07T11:54:45;11.30;;;4.68;;
7703;SDS011;3894;49.700;10.770;2024-01-07T11:57:12;12.07;;;4.28;;
7703;SDS011;3894;49.700;10.770;2024-01-07T11:59:38;14.05;;;4.50;;
7703;SDS011;3894;49.700;10.770;2024-01-07T12:02:07;11.25;;;4.38;;
7703;SDS011;3894;49.700;10.770;2024-01-07T12:04:33;11.38;;;4.18;;
7703;SDS011;3894;49.700;10.770;2024-01-07T12:06:59;11.88;;;4.28;;
7703;SDS011;3894;49.700;10.770;2024-01-07T12:09:25;11.50;;;3.25;;
7703;SDS011;3894;49.700;10.770;2024-01-07T12:11:51;9.57;;;3.42;;
7703;SDS011;3894;49.700;10.770;2024-01-07T12:14:17;16.58;;;6.38;;
7703;SDS011;3894;49.700;10.770;2024-01-07T12:16:44;10.68;;;3.60;;
7703;SDS011;3894;49.700;10.770;2024-01-07T12:19:10;9.63;;;2.50;;
7703;SDS011;3894;49.700;10.770;2024-01-07T12:21:36;11.02;;;3.80;;
7703;SDS011;3894;49.700;10.770;2024-01-07T12:24:02;9.52;;;2.80;;
7703;SDS011;3894;49.700;10.770;2024-01-07T12:26:29;9.95;;;3.22;;
7703;SDS011;3894;49.700;10.770;2024-01-07T12:28:56;7.20;;;3.08;;
7703;SDS011;3894;49.700;10.770;2024-01-07T12:31:28;9.20;;;2.35;;
7703;SDS011;3894;49.700;10.770;2024-01-07T12:33:53;9.10;;;2.92;;
7703;SDS011;3894;49.700;10.770;2024-01-07T12:36:22;8.15;;;2.88;;
7703;SDS011;3894;49.700;10.770;2024-01-07T12:38:49;6.22;;;1.75;;
7703;SDS011;3894;49.700;10.770;2024-01-07T12:41:16;7.75;;;3.20;;
7703;SDS011;3894;49.700;10.770;2024-01-07T12:43:42;8.05;;;2.65;;
7703;SDS011;3894;49.700;10.770;2024-01-07T12:46:08;6.85;;;2.58;;
7703;SDS011;3894;49.700;10.770;2024-01-07T12:48:34;8.13;;;2.58;;
7703;SDS011;3894;49.700;10.770;2024-01-07T12:51:00;5.10;;;1.45;;
7703;SDS011;3894;49.700;10.770;2024-01-07T12:53:26;6.32;;;2.20;;
7703;SDS011;3894;49.700;10.770;2024-01-07T12:55:52;8.35;;;2.33;;
7703;SDS011;3894;49.700;10.770;2024-01-07T12:58:18;7.35;;;1.92;;
7703;SDS011;3894;49.700;10.770;2024-01-07T13:00:44;7.00;;;2.40;;
7703;SDS011;3894;49.700;10.770;2024-01-07T13:03:10;8.73;;;2.28;;
7703;SDS011;3894;49.700;10.770;2024-01-07T13:05:42;9.82;;;2.10;;
7703;SDS011;3894;49.700;10.770;2024-01-07T13:08:08;6.88;;;2.08;;
7703;SDS011;3894;49.700;10.770;2024-01-07T13:10:34;6.68;;;1.83;;
7703;SDS011;3894;49.700;10.770;2024-01-07T13:12:59;8.07;;;2.85;;
7703;SDS011;3894;49.700;10.770;2024-01-07T13:15:25;6.55;;;1.67;;
7703;SDS011;3894;49.700;10.770;2024-01-07T13:17:51;6.00;;;1.55;;
7703;SDS011;3894;49.700;10.770;2024-01-07T13:20:16;5.60;;;1.30;;
7703;SDS011;3894;49.700;10.770;2024-01-07T13:22:45;5.55;;;1.77;;
7703;SDS011;3894;49.700;10.770;2024-01-07T13:25:11;6.93;;;1.35;;
7703;SDS011;3894;49.700;10.770;2024-01-07T13:27:37;5.90;;;2.00;;
7703;SDS011;3894;49.700;10.770;2024-01-07T13:30:03;6.05;;;1.55;;
7703;SDS011;3894;49.700;10.770;2024-01-07T13:32:30;5.25;;;1.50;;
7703;SDS011;3894;49.700;10.770;2024-01-07T13:34:55;6.35;;;1.92;;
7703;SDS011;3894;49.700;10.770;2024-01-07T13:37:21;4.80;;;1.48;;
7703;SDS011;3894;49.700;10.770;2024-01-07T13:39:47;8.02;;;1.67;;
7703;SDS011;3894;49.700;10.770;2024-01-07T13:42:14;4.75;;;1.55;;
7703;SDS011;3894;49.700;10.770;2024-01-07T13:44:40;7.38;;;2.47;;
7703;SDS011;3894;49.700;10.770;2024-01-07T13:47:11;5.20;;;1.60;;
7703;SDS011;3894;49.700;10.770;2024-01-07T13:49:39;4.93;;;1.80;;
7703;SDS011;3894;49.700;10.770;2024-01-07T13:52:05;6.30;;;1.75;;
7703;SDS011;3894;49.700;10.770;2024-01-07T13:54:30;7.40;;;2.17;;
7703;SDS011;3894;49.700;10.770;2024-01-07T13:56:56;6.20;;;1.60;;
7703;SDS011;3894;49.700;10.770;2024-01-07T13:59:21;6.57;;;1.98;;
7703;SDS011;3894;49.700;10.770;2024-01-07T14:01:48;10.45;;;2.78;;
7703;SDS011;3894;49.700;10.770;2024-01-07T14:04:14;7.00;;;2.08;;
7703;SDS011;3894;49.700;10.770;2024-01-07T14:06:40;6.07;;;1.67;;
7703;SDS011;3894;49.700;10.770;2024-01-07T14:09:05;5.97;;;1.60;;
7703;SDS011;3894;49.700;10.770;2024-01-07T14:11:33;6.38;;;1.88;;
7703;SDS011;3894;49.700;10.770;2024-01-07T14:13:59;5.95;;;2.50;;
7703;SDS011;3894;49.700;10.770;2024-01-07T14:16:26;7.20;;;2.80;;
7703;SDS011;3894;49.700;10.770;2024-01-07T14:18:51;7.25;;;2.00;;
7703;SDS011;3894;49.700;10.770;2024-01-07T14:21:17;8.30;;;3.00;;
7703;SDS011;3894;49.700;10.770;2024-01-07T14:23:43;7.63;;;1.92;;
7703;SDS011;3894;49.700;10.770;2024-01-07T14:26:08;6.35;;;2.08;;
7703;SDS011;3894;49.700;10.770;2024-01-07T14:28:34;8.88;;;2.70;;
7703;SDS011;3894;49.700;10.770;2024-01-07T14:31:00;5.97;;;2.92;;
7703;SDS011;3894;49.700;10.770;2024-01-07T14:33:26;6.78;;;2.33;;
7703;SDS011;3894;49.700;10.770;2024-01-07T14:35:52;8.50;;;2.72;;
7703;SDS011;3894;49.700;10.770;2024-01-07T14:38:18;8.25;;;3.08;;
7703;SDS011;3894;49.700;10.770;2024-01-07T14:40:44;6.03;;;2.42;;
7703;SDS011;3894;49.700;10.770;2024-01-07T14:43:11;7.88;;;3.20;;
7703;SDS011;3894;49.700;10.770;2024-01-07T14:45:37;9.23;;;2.85;;
7703;SDS011;3894;49.700;10.770;2024-01-07T14:48:03;8.85;;;2.63;;
7703;SDS011;3894;49.700;10.770;2024-01-07T14:50:29;7.38;;;2.08;;
7703;SDS011;3894;49.700;10.770;2024-01-07T14:52:55;10.52;;;2.83;;
7703;SDS011;3894;49.700;10.770;2024-01-07T14:55:20;7.18;;;2.53;;
7703;SDS011;3894;49.700;10.770;2024-01-07T14:57:46;5.50;;;2.25;;
7703;SDS011;3894;49.700;10.770;2024-01-07T15:00:12;6.93;;;2.33;;